createdAt,value
2019-03-10T00:01:15.827Z,3.97
2019-03-10T00:03:45.528Z,3.40
2019-03-10T00:06:15.198Z,3.97
2019-03-10T00:08:44.815Z,4.63
2019-03-10T00:11:14.428Z,3.00
2019-03-10T00:13:44.074Z,2.40
2019-03-10T00:16:13.685Z,2.10
2019-03-10T00:18:43.304Z,4.13
2019-03-10T00:21:12.968Z,2.00
2019-03-10T00:23:43.340Z,4.37
2019-03-10T00:26:12.946Z,3.03
2019-03-10T00:28:42.632Z,3.30
2019-03-10T00:31:12.230Z,4.23
2019-03-10T00:33:42.005Z,5.43
2019-03-10T00:36:11.674Z,4.83
2019-03-10T00:38:47.069Z,4.83
2019-03-10T00:41:42.554Z,7.13
2019-03-10T00:44:15.230Z,5.13
2019-03-10T00:47:03.177Z,4.77
2019-03-10T00:50:09.297Z,5.87
2019-03-10T00:52:47.032Z,9.43
2019-03-10T00:55:17.628Z,8.90
2019-03-10T00:57:47.407Z,6.33
2019-03-10T01:00:18.734Z,7.47
2019-03-10T01:02:49.299Z,7.70
2019-03-10T01:05:18.908Z,7.60
2019-03-10T01:07:49.681Z,9.97
2019-03-10T01:10:19.285Z,9.73
2019-03-10T01:12:49.248Z,8.43
2019-03-10T01:15:18.880Z,5.00
2019-03-10T01:17:51.630Z,8.00
2019-03-10T01:20:21.306Z,10.97
2019-03-10T01:22:50.990Z,5.80
2019-03-10T01:25:20.599Z,6.57
2019-03-10T01:27:50.203Z,6.13
2019-03-10T01:30:20.719Z,6.20
2019-03-10T01:32:58.739Z,8.07
2019-03-10T01:35:29.642Z,6.47
2019-03-10T01:37:59.715Z,6.20
2019-03-10T01:40:29.320Z,5.40
2019-03-10T01:42:59.017Z,10.00
2019-03-10T01:45:28.626Z,6.60
2019-03-10T01:47:59.521Z,7.83
2019-03-10T01:50:29.226Z,10.93
2019-03-10T01:52:58.852Z,5.47
2019-03-10T01:55:29.228Z,7.87
2019-03-10T01:57:58.913Z,7.83
2019-03-10T02:00:28.522Z,10.57
2019-03-10T02:02:59.198Z,7.80
2019-03-10T02:05:29.391Z,6.07
2019-03-10T02:07:58.997Z,6.53
2019-03-10T02:10:28.600Z,6.03
2019-03-10T02:12:58.246Z,6.07
2019-03-10T02:15:27.855Z,11.47
2019-03-10T02:17:58.033Z,7.77
2019-03-10T02:20:27.767Z,8.63
2019-03-10T02:22:57.388Z,6.77
2019-03-10T02:25:27.923Z,8.13
2019-03-10T02:27:57.581Z,31.07
2019-03-10T02:30:27.267Z,26.33
2019-03-10T02:32:57.162Z,10.30
2019-03-10T02:35:28.470Z,7.07
2019-03-10T02:37:58.075Z,10.37
2019-03-10T02:40:27.687Z,9.57
2019-03-10T02:42:57.443Z,9.23
2019-03-10T02:45:27.221Z,7.47
2019-03-10T02:47:56.816Z,8.77
2019-03-10T02:50:26.472Z,11.83
2019-03-10T02:52:56.079Z,8.73
2019-03-10T02:55:26.676Z,10.20
2019-03-10T02:57:56.524Z,37.20
2019-03-10T03:00:26.130Z,10.47
2019-03-10T03:02:55.753Z,5.83
2019-03-10T03:05:33.217Z,5.33
2019-03-10T03:08:02.812Z,9.90
2019-03-10T03:10:32.437Z,5.60
2019-03-10T03:13:02.106Z,11.03
2019-03-10T03:15:31.709Z,6.37
2019-03-10T03:18:01.314Z,5.03
2019-03-10T03:20:32.021Z,7.67
2019-03-10T03:23:01.638Z,6.37
2019-03-10T03:25:31.249Z,4.70
2019-03-10T03:28:00.965Z,9.30
2019-03-10T03:30:31.486Z,8.97
2019-03-10T03:33:01.225Z,6.33
2019-03-10T03:35:50.994Z,8.20
2019-03-10T03:38:32.558Z,6.40
2019-03-10T03:41:14.035Z,6.63
2019-03-10T03:43:44.656Z,8.57
2019-03-10T03:46:15.039Z,11.23
2019-03-10T03:48:45.251Z,7.97
2019-03-10T03:51:14.858Z,8.03
2019-03-10T03:53:44.828Z,8.63
2019-03-10T03:56:15.281Z,7.67
2019-03-10T03:58:44.885Z,9.03
2019-03-10T04:01:19.186Z,9.97
2019-03-10T04:03:48.933Z,7.97
2019-03-10T04:06:20.279Z,11.13
2019-03-10T04:08:50.272Z,17.50
2019-03-10T04:11:19.951Z,9.60
2019-03-10T04:13:50.126Z,8.83
2019-03-10T04:16:21.661Z,9.80
2019-03-10T04:18:52.127Z,9.47
2019-03-10T04:21:22.297Z,6.43
2019-03-10T04:23:51.898Z,9.93
2019-03-10T04:26:21.638Z,13.70
2019-03-10T04:28:51.265Z,8.13
2019-03-10T04:31:21.257Z,12.97
2019-03-10T04:33:51.741Z,8.63
2019-03-10T04:36:23.321Z,7.70
2019-03-10T04:38:53.240Z,4.27
2019-03-10T04:41:23.431Z,12.20
2019-03-10T04:43:54.139Z,7.33
2019-03-10T04:46:23.735Z,7.77
2019-03-10T04:48:53.954Z,7.47
2019-03-10T04:51:24.595Z,3.13
2019-03-10T04:53:54.200Z,3.17
2019-03-10T04:56:25.511Z,7.30
2019-03-10T04:58:55.123Z,4.07
2019-03-10T05:01:24.727Z,4.90
2019-03-10T05:03:54.373Z,5.00
2019-03-10T05:06:24.300Z,5.93
2019-03-10T05:08:55.051Z,4.63
2019-03-10T05:11:25.052Z,4.80
2019-03-10T05:13:55.024Z,6.93
2019-03-10T05:16:24.980Z,5.23
2019-03-10T05:18:54.662Z,4.83
2019-03-10T05:21:24.275Z,2.93
2019-03-10T05:23:54.992Z,3.57
2019-03-10T05:26:24.627Z,2.87
2019-03-10T05:28:54.235Z,4.27
2019-03-10T05:31:23.843Z,3.50
2019-03-10T05:33:53.770Z,3.73
2019-03-10T05:36:26.095Z,8.90
2019-03-10T05:38:56.086Z,3.10
2019-03-10T05:41:26.478Z,6.17
2019-03-10T05:43:58.737Z,8.70
2019-03-10T05:46:28.515Z,3.73
2019-03-10T05:48:58.151Z,4.60
2019-03-10T05:51:27.757Z,5.97
2019-03-10T05:53:57.362Z,3.47
2019-03-10T05:56:27.124Z,2.57
2019-03-10T05:58:57.015Z,4.67
2019-03-10T06:01:26.630Z,1.03
2019-03-10T06:03:56.274Z,2.80
2019-03-10T06:06:25.883Z,2.43
2019-03-10T06:08:55.764Z,3.10
2019-03-10T06:11:26.290Z,4.30
2019-03-10T06:13:56.405Z,6.33
2019-03-10T06:16:28.318Z,2.17
2019-03-10T06:18:58.011Z,2.50
2019-03-10T06:21:27.618Z,2.77
2019-03-10T06:23:59.711Z,2.87
2019-03-10T06:26:30.579Z,1.30
2019-03-10T06:29:00.957Z,1.80
2019-03-10T06:31:30.733Z,1.30
2019-03-10T06:34:00.675Z,1.70
2019-03-10T06:36:30.279Z,1.97
2019-03-10T06:39:00.069Z,6.77
2019-03-10T06:41:31.178Z,4.07
2019-03-10T06:44:01.256Z,3.77
2019-03-10T06:46:31.172Z,4.00
2019-03-10T06:49:00.850Z,3.80
2019-03-10T06:51:30.461Z,1.80
2019-03-10T06:54:00.930Z,3.70
2019-03-10T06:56:30.693Z,4.43
2019-03-10T06:59:00.696Z,4.33
2019-03-10T07:01:31.797Z,6.20
2019-03-10T07:04:02.640Z,5.67
2019-03-10T07:06:32.421Z,7.93
2019-03-10T07:09:02.037Z,6.53
2019-03-10T07:11:31.695Z,7.50
2019-03-10T07:14:01.326Z,7.87
2019-03-10T07:16:33.265Z,14.50
2019-03-10T07:19:02.931Z,8.43
2019-03-10T07:21:32.542Z,12.50
2019-03-10T07:24:01.981Z,12.07
2019-03-10T07:26:33.506Z,10.33
2019-03-10T07:29:05.546Z,13.43
2019-03-10T07:31:48.616Z,12.63
2019-03-10T07:34:19.999Z,12.17
2019-03-10T07:36:57.183Z,9.57
2019-03-10T07:39:28.437Z,14.27
2019-03-10T07:42:02.920Z,9.60
2019-03-10T07:44:38.283Z,9.33
2019-03-10T07:47:12.018Z,12.20
2019-03-10T07:49:47.130Z,11.03
2019-03-10T07:52:20.479Z,8.87
2019-03-10T07:55:02.757Z,10.57
2019-03-10T07:57:43.243Z,18.50
2019-03-10T08:00:17.189Z,48.90
2019-03-10T08:02:48.445Z,18.87
2019-03-10T08:05:28.528Z,10.97
2019-03-10T08:07:59.778Z,5.93
2019-03-10T08:10:39.856Z,6.33
2019-03-10T08:13:17.251Z,8.80
2019-03-10T08:16:04.811Z,8.93
2019-03-10T08:18:45.122Z,8.07
2019-03-10T08:21:19.432Z,10.20
2019-03-10T08:24:05.978Z,8.27
2019-03-10T08:26:46.251Z,4.63
2019-03-10T08:29:20.281Z,5.43
2019-03-10T08:32:07.759Z,7.13
2019-03-10T08:34:55.694Z,5.87
2019-03-10T08:37:29.437Z,8.00
2019-03-10T08:40:09.895Z,8.33
2019-03-10T08:42:42.122Z,7.33
2019-03-10T08:45:22.655Z,9.63
2019-03-10T08:47:53.801Z,25.73
2019-03-10T08:50:35.095Z,22.33
2019-03-10T08:53:09.733Z,13.47
2019-03-10T08:55:45.524Z,10.90
2019-03-10T08:58:33.011Z,12.20
2019-03-10T09:01:04.267Z,8.43
2019-03-10T09:03:50.402Z,10.83
2019-03-10T09:06:33.689Z,12.40
2019-03-10T09:09:07.434Z,13.77
2019-03-10T09:11:52.087Z,12.90
2019-03-10T09:14:27.105Z,12.97
2019-03-10T09:17:00.999Z,14.90
2019-03-10T09:19:41.233Z,15.23
2019-03-10T09:22:18.384Z,12.47
2019-03-10T09:24:49.672Z,34.67
2019-03-10T09:27:37.518Z,13.00
2019-03-10T09:30:11.747Z,10.03
2019-03-10T09:32:45.877Z,12.40
2019-03-10T09:35:21.543Z,9.43
2019-03-10T09:37:59.167Z,20.77
2019-03-10T09:40:36.307Z,13.73
2019-03-10T09:43:20.693Z,15.37
2019-03-10T09:45:58.584Z,14.80
2019-03-10T09:48:45.827Z,12.43
2019-03-10T09:51:23.479Z,17.10
2019-03-10T09:54:03.290Z,14.47
2019-03-10T09:56:40.811Z,20.83
2019-03-10T09:59:14.761Z,15.90
2019-03-10T10:01:47.005Z,13.37
2019-03-10T10:04:28.798Z,16.70
2019-03-10T10:07:00.369Z,32.30
2019-03-10T10:09:32.384Z,22.00
2019-03-10T10:12:12.911Z,17.63
2019-03-10T10:14:42.799Z,21.87
2019-03-10T10:17:20.001Z,16.97
2019-03-10T10:20:06.071Z,16.43
2019-03-10T10:22:52.278Z,28.37
2019-03-10T10:25:36.094Z,16.40
2019-03-10T10:28:07.768Z,22.00
2019-03-10T10:30:49.585Z,19.97
2019-03-10T10:33:22.017Z,11.27
2019-03-10T10:36:03.515Z,19.37
2019-03-10T10:38:34.889Z,16.50
2019-03-10T10:41:11.919Z,15.83
2019-03-10T10:43:45.892Z,17.20
2019-03-10T10:46:19.933Z,30.60
2019-03-10T10:48:54.499Z,18.40
2019-03-10T10:51:43.520Z,16.40
2019-03-10T10:54:15.018Z,24.80
2019-03-10T10:56:52.180Z,16.80
2019-03-10T10:59:33.928Z,14.10
2019-03-10T11:02:11.333Z,13.07
2019-03-10T11:04:59.026Z,19.13
2019-03-10T11:07:30.296Z,19.60
2019-03-10T11:10:17.510Z,10.97
2019-03-10T11:12:57.978Z,22.30
2019-03-10T11:15:35.614Z,17.60
2019-03-10T11:18:09.602Z,12.47
2019-03-10T11:20:40.951Z,11.63
2019-03-10T11:23:17.969Z,17.80
2019-03-10T11:25:49.224Z,14.23
2019-03-10T11:28:24.264Z,9.90
2019-03-10T11:31:14.376Z,24.53
2019-03-10T11:33:46.437Z,13.60
2019-03-10T11:36:20.314Z,46.27
2019-03-10T11:38:51.968Z,24.60
2019-03-10T11:41:33.382Z,17.57
2019-03-10T11:44:08.279Z,12.20
2019-03-10T11:46:39.687Z,20.13
2019-03-10T11:49:13.865Z,14.73
2019-03-10T11:52:01.223Z,17.03
2019-03-10T11:54:35.202Z,17.37
2019-03-10T11:57:09.458Z,19.30
2019-03-10T11:59:40.708Z,12.50
2019-03-10T12:02:21.142Z,14.10
2019-03-10T12:05:06.547Z,16.20
2019-03-10T12:07:53.946Z,28.57
2019-03-10T12:10:23.650Z,11.80
2019-03-10T12:12:53.256Z,14.37
2019-03-10T12:15:22.920Z,16.07
2019-03-10T12:17:52.692Z,12.00
2019-03-10T12:20:22.335Z,18.63
2019-03-10T12:22:52.194Z,14.87
2019-03-10T12:25:21.812Z,20.87
2019-03-10T12:27:51.615Z,29.83
2019-03-10T12:30:21.345Z,18.53
2019-03-10T12:32:50.978Z,23.90
2019-03-10T12:35:21.070Z,15.23
2019-03-10T12:37:50.721Z,9.70
2019-03-10T12:40:20.355Z,16.07
2019-03-10T12:42:49.995Z,14.00
2019-03-10T12:45:19.674Z,13.00
2019-03-10T12:47:49.343Z,9.63
2019-03-10T12:50:19.073Z,11.53
2019-03-10T12:52:48.756Z,15.70
2019-03-10T12:55:18.370Z,15.27
2019-03-10T12:57:48.000Z,24.73
2019-03-10T13:00:18.306Z,12.30
2019-03-10T13:02:48.925Z,8.93
2019-03-10T13:05:18.721Z,11.50
2019-03-10T13:07:48.393Z,13.10
2019-03-10T13:10:18.100Z,12.87
2019-03-10T13:12:47.721Z,12.43
2019-03-10T13:15:17.381Z,14.43
2019-03-10T13:17:47.094Z,20.53
2019-03-10T13:20:27.520Z,14.33
2019-03-10T13:22:48.286Z,13.20
2019-03-10T13:25:19.187Z,14.40
2019-03-10T13:27:49.876Z,20.07
2019-03-10T13:30:19.686Z,13.93
2019-03-10T13:32:52.515Z,18.50
2019-03-10T13:35:23.379Z,16.50
2019-03-10T13:37:53.078Z,12.00
2019-03-10T13:40:22.712Z,11.03
2019-03-10T13:42:55.371Z,9.60
2019-03-10T13:45:25.030Z,12.03
2019-03-10T13:47:54.710Z,13.00
2019-03-10T13:50:24.304Z,10.60
2019-03-10T13:52:55.151Z,11.17
2019-03-10T13:55:24.774Z,16.10
2019-03-10T13:57:55.275Z,13.90
2019-03-10T14:00:25.862Z,13.97
2019-03-10T14:02:55.491Z,18.00
2019-03-10T14:05:25.105Z,14.77
2019-03-10T14:07:54.861Z,13.10
2019-03-10T14:10:24.510Z,17.80
2019-03-10T14:12:54.251Z,11.40
2019-03-10T14:15:24.153Z,12.97
2019-03-10T14:17:53.795Z,59.17
2019-03-10T14:20:23.423Z,17.20
2019-03-10T14:22:53.075Z,17.73
2019-03-10T14:25:22.715Z,14.53
2019-03-10T14:27:52.473Z,16.67
2019-03-10T14:30:22.270Z,15.40
2019-03-10T14:32:52.143Z,17.37
2019-03-10T14:35:22.259Z,21.20
2019-03-10T14:37:51.929Z,16.77
2019-03-10T14:40:23.450Z,17.40
2019-03-10T14:42:53.047Z,19.90
2019-03-10T14:45:22.855Z,17.77
2019-03-10T14:47:53.943Z,13.77
2019-03-10T14:50:23.944Z,71.37
2019-03-10T14:52:54.655Z,20.00
2019-03-10T14:55:27.257Z,18.57
2019-03-10T14:57:56.877Z,19.77
2019-03-10T15:00:30.343Z,13.03
2019-03-10T15:03:00.318Z,16.23
2019-03-10T15:05:29.943Z,20.10
2019-03-10T15:07:59.879Z,11.97
2019-03-10T15:10:29.668Z,11.63
2019-03-10T15:12:59.294Z,16.10
2019-03-10T15:15:29.259Z,16.30
2019-03-10T15:17:59.204Z,20.33
2019-03-10T15:20:29.141Z,23.13
2019-03-10T15:22:58.889Z,16.87
2019-03-10T15:25:28.743Z,16.83
2019-03-10T15:27:58.662Z,24.53
2019-03-10T15:30:29.481Z,32.50
2019-03-10T15:33:00.427Z,41.20
2019-03-10T15:35:30.439Z,28.23
2019-03-10T15:38:00.309Z,65.87
2019-03-10T15:40:30.127Z,49.00
2019-03-10T15:43:00.004Z,26.67
2019-03-10T15:45:33.740Z,19.00
2019-03-10T15:48:05.451Z,20.90
2019-03-10T15:50:37.519Z,24.77
2019-03-10T15:53:07.289Z,20.40
2019-03-10T15:55:37.646Z,13.30
2019-03-10T15:58:07.380Z,25.67
2019-03-10T16:00:37.046Z,27.50
2019-03-10T16:03:07.930Z,20.67
2019-03-10T16:05:37.738Z,20.07
2019-03-10T16:08:07.437Z,181.13
2019-03-10T16:10:38.157Z,77.87
2019-03-10T16:13:07.777Z,34.17
2019-03-10T16:15:37.433Z,30.43
2019-03-10T16:18:07.943Z,31.50
2019-03-10T16:20:37.675Z,27.07
2019-03-10T16:23:07.379Z,26.30
2019-03-10T16:25:37.468Z,23.93
2019-03-10T16:28:07.098Z,27.67
2019-03-10T16:30:36.767Z,18.93
2019-03-10T16:33:06.455Z,19.83
2019-03-10T16:35:36.329Z,21.30
2019-03-10T16:38:06.228Z,28.40
2019-03-10T16:40:36.435Z,40.67
2019-03-10T16:43:06.075Z,66.17
2019-03-10T16:45:35.846Z,44.80
2019-03-10T16:48:05.721Z,60.80
2019-03-10T16:50:37.122Z,41.50
2019-03-10T16:53:07.064Z,27.83
2019-03-10T16:55:37.604Z,36.57
2019-03-10T16:58:07.304Z,32.73
2019-03-10T17:00:37.026Z,102.97
2019-03-10T17:03:07.633Z,158.30
2019-03-10T17:05:38.438Z,45.43
2019-03-10T17:08:08.453Z,43.47
2019-03-10T17:10:38.139Z,20.20
2019-03-10T17:13:08.710Z,22.83
2019-03-10T17:15:39.039Z,33.60
2019-03-10T17:18:08.655Z,32.43
2019-03-10T17:20:38.283Z,34.87
2019-03-10T17:23:09.194Z,38.23
2019-03-10T17:25:39.159Z,37.80
2019-03-10T17:28:08.856Z,34.67
2019-03-10T17:30:38.527Z,28.20
2019-03-10T17:33:09.156Z,39.27
2019-03-10T17:35:39.622Z,35.53
2019-03-10T17:38:10.079Z,37.97
2019-03-10T17:40:44.148Z,31.67
2019-03-10T17:43:14.076Z,40.00
2019-03-10T17:45:46.786Z,107.57
2019-03-10T17:48:16.981Z,55.63
2019-03-10T17:50:48.721Z,67.10
2019-03-10T17:53:20.225Z,46.30
2019-03-10T17:55:50.102Z,47.03
2019-03-10T17:58:21.332Z,44.03
2019-03-10T18:00:52.624Z,50.93
2019-03-10T18:03:26.932Z,41.73
2019-03-10T18:05:56.671Z,37.97
2019-03-10T18:08:27.307Z,55.67
2019-03-10T18:11:08.021Z,96.27
2019-03-10T18:13:42.466Z,115.40
2019-03-10T18:16:12.660Z,107.33
2019-03-10T18:18:42.577Z,111.00
2019-03-10T18:21:13.206Z,100.27
2019-03-10T18:23:43.769Z,126.87
2019-03-10T18:26:13.393Z,116.63
2019-03-10T18:28:43.124Z,155.73
2019-03-10T18:31:12.955Z,161.50
2019-03-10T18:33:47.359Z,171.50
2019-03-10T18:36:17.866Z,145.57
2019-03-10T18:38:47.559Z,136.00
2019-03-10T18:41:20.364Z,103.67
2019-03-10T18:43:50.126Z,136.13
2019-03-10T18:46:19.751Z,146.97
2019-03-10T18:48:54.167Z,168.93
2019-03-10T18:51:25.501Z,215.63
2019-03-10T18:53:55.464Z,244.80
2019-03-10T18:56:26.817Z,246.00
2019-03-10T18:58:58.927Z,251.80
2019-03-10T19:01:32.212Z,252.40
2019-03-10T19:04:10.635Z,244.33
2019-03-10T19:06:41.828Z,217.87
2019-03-10T19:09:11.738Z,180.50
2019-03-10T19:11:43.751Z,155.70
2019-03-10T19:14:15.020Z,155.97
2019-03-10T19:16:46.146Z,161.87
2019-03-10T19:19:18.534Z,119.87
2019-03-10T19:21:48.000Z,131.10
2019-03-10T19:24:20.592Z,98.83
2019-03-10T19:26:59.858Z,107.97
2019-03-10T19:29:30.423Z,129.60
2019-03-10T19:32:06.818Z,168.63
2019-03-10T19:34:36.792Z,176.33
2019-03-10T19:37:09.519Z,179.53
2019-03-10T19:39:38.972Z,159.93
2019-03-10T19:42:10.553Z,139.67
2019-03-10T19:44:42.366Z,115.17
2019-03-10T19:47:13.847Z,92.83
2019-03-10T19:49:44.544Z,99.57
2019-03-10T19:52:18.974Z,86.17
2019-03-10T19:54:51.395Z,84.70
2019-03-10T19:57:21.718Z,182.63
2019-03-10T19:59:51.389Z,144.30
2019-03-10T20:02:21.017Z,59.37
2019-03-10T20:04:50.634Z,67.13
2019-03-10T20:07:20.322Z,79.90
2019-03-10T20:09:49.962Z,75.70
2019-03-10T20:12:19.896Z,70.77
2019-03-10T20:14:50.663Z,71.83
2019-03-10T20:17:20.658Z,79.03
2019-03-10T20:19:58.072Z,73.10
2019-03-10T20:22:27.928Z,81.27
2019-03-10T20:24:57.718Z,65.63
2019-03-10T20:27:30.817Z,68.00
2019-03-10T20:30:00.573Z,49.40
2019-03-10T20:32:30.204Z,58.83
2019-03-10T20:34:59.821Z,47.97
2019-03-10T20:37:29.619Z,45.90
2019-03-10T20:39:59.628Z,49.00
2019-03-10T20:42:29.739Z,60.10
2019-03-10T20:44:59.400Z,75.07
2019-03-10T20:47:29.026Z,75.83
2019-03-10T20:50:00.371Z,81.93
2019-03-10T20:52:30.006Z,58.03
2019-03-10T20:54:59.641Z,58.40
2019-03-10T20:57:30.482Z,50.87
2019-03-10T21:00:01.305Z,45.40
2019-03-10T21:02:31.343Z,59.97
2019-03-10T21:05:00.972Z,73.80
2019-03-10T21:07:30.692Z,76.00
2019-03-10T21:10:01.273Z,83.70
2019-03-10T21:12:39.775Z,78.03
2019-03-10T21:15:04.242Z,67.13
2019-03-10T21:17:35.099Z,101.37
2019-03-10T21:20:07.846Z,31.80
2019-03-10T21:22:37.775Z,29.77
2019-03-10T21:25:15.773Z,23.50
2019-03-10T21:27:45.784Z,21.37
2019-03-10T21:30:23.844Z,17.80
2019-03-10T21:32:53.511Z,30.40
2019-03-10T21:35:23.272Z,34.30
2019-03-10T21:37:52.962Z,20.60
2019-03-10T21:40:34.872Z,27.70
2019-03-10T21:43:04.647Z,25.70
2019-03-10T21:45:34.529Z,30.07
2019-03-10T21:48:04.642Z,29.07
2019-03-10T21:50:34.613Z,36.63
2019-03-10T21:53:04.385Z,34.70
2019-03-10T21:55:34.171Z,36.53
2019-03-10T21:58:03.814Z,107.93
2019-03-10T22:00:33.495Z,42.90
2019-03-10T22:03:03.241Z,34.13
2019-03-10T22:05:33.222Z,30.60
2019-03-10T22:08:02.965Z,33.23
2019-03-10T22:10:33.689Z,35.17
2019-03-10T22:13:03.383Z,33.40
2019-03-10T22:15:41.570Z,43.30
2019-03-10T22:18:08.050Z,33.80
2019-03-10T22:20:39.375Z,31.73
2019-03-10T22:23:10.055Z,32.70
2019-03-10T22:25:40.866Z,24.80
2019-03-10T22:28:10.486Z,26.03
2019-03-10T22:30:41.250Z,91.80
2019-03-10T22:33:11.302Z,25.87
2019-03-10T22:35:40.910Z,19.13
2019-03-10T22:38:12.037Z,24.20
2019-03-10T22:40:42.747Z,22.53
2019-03-10T22:43:13.239Z,13.37
2019-03-10T22:45:42.967Z,14.97
2019-03-10T22:48:12.744Z,13.13
2019-03-10T22:50:43.117Z,14.33
2019-03-10T22:53:12.728Z,13.20
2019-03-10T22:55:42.644Z,10.77
2019-03-10T22:58:13.732Z,7.17
2019-03-10T23:00:51.289Z,7.20
2019-03-10T23:03:21.174Z,5.27
2019-03-10T23:05:50.769Z,6.50
2019-03-10T23:08:20.429Z,5.10
2019-03-10T23:10:50.055Z,6.70
2019-03-10T23:13:19.660Z,9.80
2019-03-10T23:15:49.337Z,6.37
2019-03-10T23:18:19.427Z,6.20
2019-03-10T23:20:49.031Z,6.13
2019-03-10T23:23:18.667Z,7.73
2019-03-10T23:25:48.543Z,5.87
2019-03-10T23:28:18.415Z,4.13
2019-03-10T23:30:48.670Z,4.80
2019-03-10T23:33:18.269Z,6.20
2019-03-10T23:35:48.054Z,6.43
2019-03-10T23:38:17.697Z,8.03
2019-03-10T23:40:47.289Z,4.43
2019-03-10T23:43:17.440Z,4.83
2019-03-10T23:45:47.076Z,4.57
2019-03-10T23:48:18.557Z,4.53
2019-03-10T23:50:48.432Z,6.17
2019-03-10T23:53:18.696Z,3.40
2019-03-10T23:55:48.317Z,3.93
2019-03-10T23:58:18.284Z,6.10
